createdAt,value
2018-01-02T00:00:21.303Z,5.07
2018-01-02T00:02:53.809Z,4.43
2018-01-02T00:05:26.317Z,5.23
2018-01-02T00:07:58.832Z,4.30
2018-01-02T00:10:31.327Z,6.97
2018-01-02T00:13:03.879Z,7.50
2018-01-02T00:15:36.385Z,6.23
2018-01-02T00:18:08.897Z,7.43
2018-01-02T00:20:41.394Z,4.30
2018-01-02T00:23:13.897Z,4.13
2018-01-02T00:25:46.397Z,3.63
2018-01-02T00:28:18.899Z,3.53
2018-01-02T00:30:51.376Z,6.13
2018-01-02T00:33:23.912Z,7.80
2018-01-02T00:35:56.430Z,10.30
2018-01-02T00:38:28.939Z,7.47
2018-01-02T00:41:01.439Z,6.57
2018-01-02T00:43:35.057Z,5.13
2018-01-02T00:46:07.548Z,5.20
2018-01-02T00:48:40.073Z,8.47
2018-01-02T00:51:12.563Z,4.60
2018-01-02T00:53:46.133Z,4.73
2018-01-02T00:56:18.631Z,5.07
2018-01-02T00:58:51.156Z,5.30
2018-01-02T01:01:23.645Z,7.80
2018-01-02T01:03:56.140Z,8.07
2018-01-02T01:06:28.642Z,9.37
2018-01-02T01:09:01.148Z,4.63
2018-01-02T01:11:33.642Z,4.90
2018-01-02T01:14:06.216Z,4.83
2018-01-02T01:16:38.669Z,6.10
2018-01-02T01:19:11.188Z,6.20
2018-01-02T01:21:43.675Z,4.30
2018-01-02T01:24:16.522Z,4.23
2018-01-02T01:26:49.712Z,4.33
2018-01-02T01:29:22.222Z,4.77
2018-01-02T01:31:54.702Z,4.50
2018-01-02T01:34:27.246Z,4.63
2018-01-02T01:36:59.755Z,3.80
2018-01-02T01:39:32.283Z,7.20
2018-01-02T01:42:04.780Z,7.57
2018-01-02T01:44:37.276Z,3.97
2018-01-02T01:47:09.764Z,4.50
2018-01-02T01:49:42.282Z,4.37
2018-01-02T01:52:14.781Z,4.87
2018-01-02T01:54:48.050Z,6.60
2018-01-02T01:57:20.527Z,6.47
2018-01-02T01:59:53.026Z,4.40
2018-01-02T02:02:25.528Z,4.53
2018-01-02T02:04:58.043Z,3.00
2018-01-02T02:07:30.522Z,4.30
2018-01-02T02:10:03.041Z,4.70
2018-01-02T02:12:35.525Z,6.17
2018-01-02T02:15:08.044Z,6.27
2018-01-02T02:17:40.519Z,5.87
2018-01-02T02:20:13.024Z,8.30
2018-01-02T02:22:45.523Z,5.47
2018-01-02T02:25:18.047Z,5.00
2018-01-02T02:27:50.559Z,8.50
2018-01-02T02:30:23.081Z,5.10
2018-01-02T02:32:55.567Z,5.50
2018-01-02T02:35:28.192Z,7.47
2018-01-02T02:38:00.688Z,6.70
2018-01-02T02:40:45.089Z,6.27
2018-01-02T02:43:17.587Z,6.27
2018-01-02T02:45:50.100Z,6.33
2018-01-02T02:48:22.590Z,7.47
2018-01-02T02:50:55.110Z,6.83
2018-01-02T02:53:27.618Z,7.23
2018-01-02T02:56:00.119Z,7.10
2018-01-02T02:58:32.619Z,7.77
2018-01-02T03:01:05.809Z,7.33
2018-01-02T03:03:38.356Z,8.40
2018-01-02T03:06:10.862Z,6.77
2018-01-02T03:08:43.368Z,6.93
2018-01-02T03:11:15.885Z,8.90
2018-01-02T03:13:48.388Z,10.27
2018-01-02T03:16:20.886Z,7.90
2018-01-02T03:18:53.376Z,9.50
2018-01-02T03:21:25.889Z,10.37
2018-01-02T03:23:58.385Z,8.83
2018-01-02T03:26:30.901Z,7.07
2018-01-02T03:29:04.027Z,9.03
2018-01-02T03:31:37.341Z,10.13
2018-01-02T03:34:09.844Z,9.80
2018-01-02T03:36:42.363Z,9.50
2018-01-02T03:39:14.863Z,9.07
2018-01-02T03:41:47.388Z,8.77
2018-01-02T03:44:19.885Z,12.73
2018-01-02T03:46:52.384Z,10.50
2018-01-02T03:49:24.933Z,8.70
2018-01-02T03:51:57.456Z,16.87
2018-01-02T03:54:29.960Z,11.93
2018-01-02T03:57:02.469Z,12.63
2018-01-02T03:59:35.655Z,17.40
2018-01-02T04:02:08.177Z,15.37
2018-01-02T04:04:40.707Z,16.17
2018-01-02T04:07:13.223Z,16.37
2018-01-02T04:09:45.713Z,19.33
2018-01-02T04:12:18.224Z,18.53
2018-01-02T04:14:50.715Z,14.93
2018-01-02T04:17:23.231Z,18.87
2018-01-02T04:19:55.727Z,18.30
2018-01-02T04:22:28.233Z,20.87
2018-01-02T04:25:00.745Z,19.83
2018-01-02T04:27:34.956Z,21.27
2018-01-02T04:30:07.461Z,19.77
2018-01-02T04:32:39.992Z,18.60
2018-01-02T04:35:13.294Z,18.97
2018-01-02T04:37:45.806Z,25.80
2018-01-02T04:40:18.315Z,20.83
2018-01-02T04:42:51.152Z,30.83
2018-01-02T04:45:23.677Z,24.97
2018-01-02T04:47:56.175Z,27.93
2018-01-02T04:50:28.792Z,21.70
2018-01-02T04:53:01.300Z,24.30
2018-01-02T04:55:34.506Z,26.47
2018-01-02T04:58:06.998Z,28.77
2018-01-02T05:00:40.400Z,31.90
2018-01-02T05:03:12.906Z,28.70
2018-01-02T05:05:45.424Z,27.90
2018-01-02T05:08:17.916Z,29.20
2018-01-02T05:10:50.453Z,28.50
2018-01-02T05:13:22.936Z,32.33
2018-01-02T05:15:55.448Z,32.50
2018-01-02T05:18:27.943Z,30.03
2018-01-02T05:21:00.454Z,29.77
2018-01-02T05:23:32.982Z,33.10
2018-01-02T05:26:06.335Z,35.93
2018-01-02T05:28:38.832Z,30.27
2018-01-02T05:31:11.362Z,38.53
2018-01-02T05:33:43.844Z,34.50
2018-01-02T05:36:16.356Z,35.70
2018-01-02T05:38:48.869Z,33.87
2018-01-02T05:41:21.399Z,33.90
2018-01-02T05:43:53.970Z,36.13
2018-01-02T05:46:26.497Z,36.53
2018-01-02T05:48:59.011Z,40.20
2018-01-02T05:51:31.546Z,39.17
2018-01-02T05:54:04.610Z,36.00
2018-01-02T05:56:37.123Z,39.57
2018-01-02T05:59:09.620Z,40.70
2018-01-02T06:01:42.137Z,39.90
2018-01-02T06:04:14.623Z,40.83
2018-01-02T06:06:47.137Z,40.30
2018-01-02T06:09:19.635Z,36.20
2018-01-02T06:11:52.134Z,40.40
2018-01-02T06:14:24.708Z,42.17
2018-01-02T06:16:57.470Z,42.43
2018-01-02T06:19:29.988Z,34.67
2018-01-02T06:22:02.524Z,42.97
2018-01-02T06:24:35.736Z,40.97
2018-01-02T06:27:08.256Z,39.37
2018-01-02T06:29:40.764Z,35.43
2018-01-02T06:32:13.298Z,35.27
2018-01-02T06:34:45.799Z,41.87
2018-01-02T06:37:18.333Z,48.00
2018-01-02T06:39:50.847Z,37.60
2018-01-02T06:42:23.364Z,41.87
2018-01-02T06:44:55.855Z,33.97
2018-01-02T06:47:28.384Z,34.40
2018-01-02T06:50:00.879Z,32.63
2018-01-02T06:52:34.013Z,31.87
2018-01-02T06:55:06.521Z,40.80
2018-01-02T06:57:39.023Z,34.00
2018-01-02T07:03:26.420Z,40.83
2018-01-02T07:05:58.916Z,33.63
2018-01-02T07:08:31.433Z,46.03
2018-01-02T07:11:04.610Z,35.13
2018-01-02T07:13:37.120Z,41.57
2018-01-02T07:16:09.608Z,27.87
2018-01-02T07:18:42.138Z,30.10
2018-01-02T07:21:14.634Z,28.47
2018-01-02T07:23:47.148Z,34.27
2018-01-02T07:26:19.680Z,28.87
2018-01-02T07:28:52.215Z,38.17
2018-01-02T07:31:24.705Z,34.83
2018-01-02T07:33:57.236Z,31.43
2018-01-02T07:36:29.723Z,29.57
2018-01-02T07:39:02.226Z,28.97
2018-01-02T07:41:34.765Z,27.77
2018-01-02T07:44:07.277Z,28.47
2018-01-02T07:46:40.772Z,25.70
2018-01-02T07:49:14.207Z,28.40
2018-01-02T07:51:46.747Z,27.90
2018-01-02T07:54:19.250Z,29.40
2018-01-02T07:56:51.780Z,25.43
2018-01-02T07:59:24.279Z,22.70
2018-01-02T08:01:56.790Z,25.43
2018-01-02T08:04:29.304Z,24.03
2018-01-02T08:07:01.887Z,22.53
2018-01-02T08:09:34.763Z,21.67
2018-01-02T08:12:07.284Z,20.43
2018-01-02T08:14:39.779Z,18.10
2018-01-02T08:17:12.306Z,15.60
2018-01-02T08:19:44.798Z,12.77
2018-01-02T08:22:17.329Z,13.57
2018-01-02T08:24:49.847Z,11.90
2018-01-02T08:27:22.361Z,11.97
2018-01-02T08:29:54.850Z,11.33
2018-01-02T08:32:27.408Z,13.33
2018-01-02T08:34:59.901Z,10.70
2018-01-02T08:37:32.422Z,12.43
2018-01-02T08:40:04.978Z,11.77
2018-01-02T08:42:37.492Z,9.40
2018-01-02T08:45:10.039Z,9.60
2018-01-02T08:47:42.550Z,9.77
2018-01-02T08:50:15.173Z,7.80
2018-01-02T08:52:47.722Z,8.70
2018-01-02T08:55:21.475Z,7.40
2018-01-02T08:57:54.935Z,8.60
2018-01-02T09:00:27.436Z,8.93
2018-01-02T09:03:00.599Z,8.77
2018-01-02T09:05:36.031Z,9.63
2018-01-02T09:08:08.859Z,8.30
2018-01-02T09:10:41.566Z,11.87
2018-01-02T09:13:17.476Z,8.93
2018-01-02T09:15:50.380Z,7.93
2018-01-02T09:18:23.208Z,9.93
2018-01-02T09:20:57.449Z,7.43
2018-01-02T09:23:31.576Z,8.83
2018-01-02T09:26:04.770Z,9.80
2018-01-02T09:28:38.008Z,14.27
2018-01-02T09:31:10.732Z,10.67
2018-01-02T09:33:44.537Z,11.97
2018-01-02T09:36:17.546Z,10.60
2018-01-02T09:38:50.559Z,13.83
2018-01-02T09:41:23.598Z,15.00
2018-01-02T09:43:57.535Z,12.07
2018-01-02T09:46:30.428Z,18.07
2018-01-02T09:49:03.290Z,16.67
2018-01-02T09:51:40.300Z,15.70
2018-01-02T09:54:13.547Z,16.17
2018-01-02T09:56:46.445Z,16.10
2018-01-02T09:59:20.447Z,15.57
2018-01-02T10:01:54.298Z,20.57
2018-01-02T10:04:27.243Z,18.77
2018-01-02T10:07:00.057Z,20.10
2018-01-02T10:09:36.173Z,18.93
2018-01-02T10:12:09.778Z,18.40
2018-01-02T10:14:43.528Z,16.67
2018-01-02T10:17:16.012Z,15.80
2018-01-02T10:19:50.051Z,18.10
2018-01-02T10:22:23.771Z,13.93
2018-01-02T10:24:56.501Z,15.20
2018-01-02T10:27:28.993Z,15.17
2018-01-02T10:30:04.293Z,13.47
2018-01-02T10:32:38.316Z,12.27
2018-01-02T10:35:11.170Z,12.10
2018-01-02T10:37:43.879Z,11.60
2018-01-02T10:40:20.126Z,11.27
2018-01-02T10:42:53.880Z,10.67
2018-01-02T10:45:26.616Z,10.87
2018-01-02T10:48:00.532Z,11.33
2018-01-02T10:50:35.134Z,11.97
2018-01-02T10:53:08.302Z,13.20
2018-01-02T10:55:41.311Z,11.23
2018-01-02T10:58:14.139Z,11.07
2018-01-02T11:00:53.521Z,11.63
2018-01-02T11:03:26.043Z,11.20
2018-01-02T11:05:59.975Z,12.47
2018-01-02T11:08:32.717Z,12.07
2018-01-02T12:34:25.143Z,14.37
2018-01-02T12:36:58.836Z,14.50
2018-01-02T12:39:31.465Z,15.40
2018-01-02T12:42:08.177Z,14.30
2018-01-02T12:44:41.290Z,13.00
2018-01-02T12:47:15.127Z,14.20
2018-01-02T12:49:48.550Z,13.50
2018-01-02T12:52:22.675Z,14.13
2018-01-02T12:54:55.815Z,12.70
2018-01-02T12:57:28.538Z,12.17
2018-01-02T13:00:01.176Z,11.30
2018-01-02T13:02:37.112Z,12.77
2018-01-02T13:05:09.965Z,12.17
2018-01-02T13:07:43.382Z,11.77
2018-01-02T13:10:16.582Z,10.73
2018-01-02T13:12:50.865Z,12.83
2018-01-02T13:15:23.806Z,12.53
2018-01-02T13:17:57.327Z,9.30
2018-01-02T13:20:31.443Z,12.47
2018-01-02T13:23:07.111Z,10.93
2018-01-02T13:25:40.446Z,11.17
2018-01-02T13:28:13.494Z,11.40
2018-01-02T13:30:46.735Z,11.27
2018-01-02T13:33:19.645Z,11.43
2018-01-02T13:35:52.176Z,11.30
2018-01-02T13:38:24.984Z,9.90
2018-01-02T13:40:57.667Z,8.83
2018-01-02T13:43:31.512Z,10.43
2018-01-02T13:46:06.273Z,10.80
2018-01-02T13:48:39.138Z,12.40
2018-01-02T13:51:11.983Z,10.70
2018-01-02T13:53:45.687Z,10.37
2018-01-02T13:56:19.499Z,11.40
2018-01-02T13:58:52.498Z,10.13
2018-01-02T14:01:26.025Z,10.63
2018-01-02T14:03:59.959Z,9.23
2018-01-02T14:06:32.990Z,9.93
2018-01-02T14:09:06.403Z,9.10
2018-01-02T14:11:40.555Z,9.90
2018-01-02T14:14:13.689Z,9.80
2018-01-02T14:16:47.088Z,8.90
2018-01-02T14:19:20.704Z,7.57
2018-01-02T14:21:54.939Z,8.00
2018-01-02T14:24:27.593Z,8.60
2018-01-02T14:27:00.388Z,8.83
2018-01-02T14:29:35.987Z,8.23
2018-01-02T14:32:10.146Z,8.43
2018-01-02T14:34:43.261Z,8.77
2018-01-02T14:37:16.196Z,8.63
2018-01-02T14:39:49.038Z,8.20
2018-01-02T14:42:22.764Z,8.60
2018-01-02T14:44:55.799Z,7.93
2018-01-02T14:47:28.504Z,9.40
2018-01-02T14:50:01.602Z,10.97
2018-01-02T14:52:36.617Z,8.77
2018-01-02T14:55:10.137Z,8.23
2018-01-02T14:57:42.864Z,9.97
2018-01-02T15:00:15.757Z,8.00
2018-01-02T15:02:49.472Z,13.57
2018-01-02T15:05:22.413Z,9.20
2018-01-02T15:07:55.163Z,8.63
2018-01-02T15:10:28.035Z,10.07
2018-01-02T15:13:02.042Z,10.47
2018-01-02T15:15:36.521Z,9.50
2018-01-02T15:18:09.223Z,9.83
2018-01-02T15:20:41.764Z,15.27
2018-01-02T15:23:14.340Z,9.77
2018-01-02T15:25:47.898Z,9.93
2018-01-02T15:28:21.430Z,9.97
2018-01-02T15:30:54.055Z,12.20
2018-01-02T15:33:26.860Z,12.90
2018-01-02T15:35:59.879Z,10.00
2018-01-02T15:38:32.912Z,9.93
2018-01-02T15:41:08.783Z,10.50
2018-01-02T15:43:41.852Z,9.40
2018-01-02T15:46:15.179Z,11.33
2018-01-02T15:48:47.698Z,10.43
2018-01-02T15:51:20.210Z,11.30
2018-01-02T15:53:53.538Z,12.20
2018-01-02T15:56:26.692Z,8.13
2018-01-02T15:58:59.587Z,6.73
2018-01-02T16:01:33.995Z,7.70
2018-01-02T16:04:06.503Z,8.70
2018-01-02T16:06:39.471Z,7.23
2018-01-02T16:09:13.291Z,12.47
2018-01-02T16:11:47.312Z,8.67
2018-01-02T16:14:20.018Z,8.43
2018-01-02T16:16:52.839Z,9.57
2018-01-02T16:19:26.743Z,8.90
2018-01-02T16:22:00.640Z,7.13
2018-01-02T16:24:35.264Z,7.90
2018-01-02T16:27:08.170Z,9.20
2018-01-02T16:29:41.832Z,11.03
2018-01-02T16:32:15.259Z,7.43
2018-01-02T16:34:47.769Z,13.07
2018-01-02T16:37:20.980Z,15.33
2018-01-02T16:39:54.307Z,6.43
2018-01-02T16:42:28.464Z,9.20
2018-01-02T16:45:01.167Z,7.03
2018-01-02T16:47:36.205Z,8.47
2018-01-02T16:50:09.002Z,5.63
2018-01-02T16:52:43.139Z,6.67
2018-01-02T16:55:17.075Z,5.70
2018-01-02T16:57:49.924Z,7.00
2018-01-02T17:00:22.911Z,6.33
2018-01-02T17:02:56.919Z,6.80
2018-01-02T17:05:29.750Z,6.10
2018-01-02T17:08:02.667Z,9.50
2018-01-02T17:10:38.042Z,8.67
2018-01-02T17:13:11.465Z,8.13
2018-01-02T17:15:44.482Z,9.77
2018-01-02T17:18:30.792Z,7.40
2018-01-02T17:21:27.916Z,5.80
2018-01-02T17:24:00.996Z,9.23
2018-01-02T17:26:35.416Z,6.30
2018-01-02T17:29:08.396Z,8.63
2018-01-02T19:00:35.267Z,11.83
2018-01-02T19:03:09.763Z,13.50
2018-01-02T19:05:44.525Z,12.83
2018-01-02T19:08:21.466Z,16.43
2018-01-02T19:10:54.643Z,15.47
2018-01-02T19:13:27.161Z,14.93
2018-01-02T19:15:59.921Z,13.90
2018-01-02T19:18:37.021Z,15.93
2018-01-02T19:21:11.335Z,14.10
2018-01-02T19:23:45.591Z,16.83
2018-01-02T19:26:18.364Z,12.97
2018-01-02T19:28:50.868Z,14.00
2018-01-02T19:31:23.389Z,12.57
2018-01-02T19:33:55.892Z,13.60
2018-01-02T19:36:29.050Z,14.77
2018-01-02T19:39:05.771Z,18.13
2018-01-02T19:41:39.632Z,21.43
2018-01-02T19:44:13.727Z,18.20
2018-01-02T19:46:47.051Z,18.97
2018-01-02T19:49:19.747Z,15.77
2018-01-02T19:51:52.264Z,14.50
2018-01-02T19:54:24.795Z,14.50
2018-01-02T19:56:57.292Z,15.50
2018-01-02T19:59:29.998Z,16.97
2018-01-02T20:02:05.580Z,17.47
2018-01-02T20:04:39.981Z,16.37
2018-01-02T20:07:13.967Z,18.53
2018-01-02T20:09:47.506Z,16.83
2018-01-02T20:12:20.112Z,16.20
2018-01-02T20:14:52.636Z,24.07
2018-01-02T20:17:25.134Z,21.23
2018-01-02T20:19:57.644Z,15.57
2018-01-02T20:22:32.683Z,16.13
2018-01-02T20:25:09.452Z,18.27
2018-01-02T20:27:43.012Z,18.90
2018-01-02T20:30:16.539Z,18.10
2018-01-02T20:32:49.251Z,17.57
2018-01-02T20:35:21.915Z,16.87
2018-01-02T20:37:54.418Z,18.00
2018-01-02T20:40:26.926Z,20.23
2018-01-02T20:43:02.366Z,21.03
2018-01-02T20:45:35.667Z,21.97
2018-01-02T20:48:08.954Z,17.07
2018-01-02T20:50:41.927Z,16.40
2018-01-02T20:53:15.208Z,23.83
2018-01-02T20:55:49.914Z,23.73
2018-01-02T20:58:22.523Z,18.90
2018-01-02T21:00:55.016Z,18.90
2018-01-02T21:03:27.523Z,23.73
2018-01-02T21:06:04.857Z,16.53
2018-01-02T21:08:38.311Z,23.37
2018-01-02T21:11:13.049Z,23.20
2018-01-02T21:13:46.967Z,17.47
2018-01-02T21:16:20.029Z,18.33
2018-01-02T21:18:53.736Z,17.43
2018-01-02T21:21:26.701Z,15.30
2018-01-02T21:24:01.328Z,17.73
2018-01-02T21:26:36.773Z,18.47
2018-01-02T21:29:14.400Z,16.93
2018-01-02T21:31:47.345Z,14.93
2018-01-02T21:34:20.352Z,15.40
2018-01-02T21:36:52.987Z,15.80
2018-01-02T21:39:25.765Z,12.60
2018-01-02T21:41:59.277Z,15.63
2018-01-02T21:44:35.002Z,17.10
2018-01-02T21:47:08.492Z,13.90
2018-01-02T21:49:43.656Z,14.53
2018-01-02T21:52:17.858Z,13.30
2018-01-02T21:54:50.412Z,12.20
2018-01-02T21:57:23.431Z,12.60
2018-01-02T21:59:56.378Z,12.17
2018-01-02T22:02:31.816Z,10.70
2018-01-02T22:05:07.831Z,11.07
2018-01-02T22:07:41.226Z,11.17
2018-01-02T22:10:14.607Z,10.20
2018-01-02T22:12:48.050Z,8.67
2018-01-02T22:15:20.654Z,9.43
2018-01-02T22:17:53.180Z,9.13
2018-01-02T22:20:25.676Z,8.70
2018-01-02T22:22:58.187Z,8.40
2018-01-02T22:25:35.953Z,9.07
2018-01-02T22:28:16.896Z,7.70
2018-01-02T22:30:50.805Z,7.83
2018-01-02T22:33:23.338Z,7.70
2018-01-02T22:35:55.924Z,6.97
2018-01-02T22:38:28.907Z,7.20
2018-01-02T22:41:02.343Z,7.00
2018-01-02T22:43:37.382Z,6.70
2018-01-02T22:46:12.882Z,7.10
2018-01-02T22:48:46.652Z,6.63
2018-01-02T22:51:20.153Z,6.63
2018-01-02T22:53:54.332Z,6.47
2018-01-02T22:56:26.863Z,7.10
2018-01-02T22:59:01.169Z,6.20
2018-01-02T23:01:49.658Z,6.47
2018-01-02T23:04:22.795Z,6.73
2018-01-02T23:06:55.436Z,6.50
2018-01-02T23:09:27.964Z,6.20
2018-01-02T23:12:07.657Z,6.07
2018-01-02T23:14:43.126Z,5.53
2018-01-02T23:17:16.623Z,6.27
2018-01-02T23:19:51.399Z,6.13
2018-01-02T23:22:23.887Z,5.60
2018-01-02T23:24:56.385Z,5.10
2018-01-02T23:27:31.201Z,5.80
2018-01-02T23:30:08.950Z,5.90
2018-01-02T23:32:43.121Z,4.63
2018-01-02T23:35:16.498Z,4.97
2018-01-02T23:37:49.639Z,5.20
2018-01-02T23:40:22.136Z,5.83
2018-01-02T23:42:54.624Z,5.33
2018-01-02T23:45:32.182Z,5.30
2018-01-02T23:48:07.073Z,4.77
2018-01-02T23:50:42.715Z,4.63
2018-01-02T23:53:18.894Z,4.83
2018-01-02T23:55:58.357Z,3.93
2018-01-02T23:58:40.362Z,4.03
